sensor_id;sensor_type;location;lat;lon;timestamp;temperature;humidity
68189;DHT22;66299;47.514;19.218;2023-02-25T00:02:21;6.20;93.86
68189;DHT22;66299;47.514;19.218;2023-02-25T00:04:50;6.06;94.55
68189;DHT22;66299;47.514;19.218;2023-02-25T00:07:24;6.03;94.82
68189;DHT22;66299;47.514;19.218;2023-02-25T00:09:56;5.93;94.98
68189;DHT22;66299;47.514;19.218;2023-02-25T00:12:25;5.93;95.14
68189;DHT22;66299;47.514;19.218;2023-02-25T00:14:56;5.81;95.08
68189;DHT22;66299;47.514;19.218;2023-02-25T00:17:25;5.91;95.01
68189;DHT22;66299;47.514;19.218;2023-02-25T00:19:56;5.90;94.70
68189;DHT22;66299;47.514;19.218;2023-02-25T00:22:31;6.11;94.38
68189;DHT22;66299;47.514;19.218;2023-02-25T00:25:02;6.38;93.94
68189;DHT22;66299;47.514;19.218;2023-02-25T00:27:32;6.42;93.70
68189;DHT22;66299;47.514;19.218;2023-02-25T00:30:07;6.66;93.24
68189;DHT22;66299;47.514;19.218;2023-02-25T00:32:37;6.69;93.36
68189;DHT22;66299;47.514;19.218;2023-02-25T00:35:08;6.65;93.31
68189;DHT22;66299;47.514;19.218;2023-02-25T00:37:40;6.77;92.70
68189;DHT22;66299;47.514;19.218;2023-02-25T00:40:12;6.82;92.70
68189;DHT22;66299;47.514;19.218;2023-02-25T00:42:42;6.82;92.32
68189;DHT22;66299;47.514;19.218;2023-02-25T00:45:14;6.86;92.33
68189;DHT22;66299;47.514;19.218;2023-02-25T00:47:43;6.82;92.20
68189;DHT22;66299;47.514;19.218;2023-02-25T00:50:12;6.86;92.15
68189;DHT22;66299;47.514;19.218;2023-02-25T00:52:42;6.85;91.94
68189;DHT22;66299;47.514;19.218;2023-02-25T00:55:13;6.76;92.22
68189;DHT22;66299;47.514;19.218;2023-02-25T00:58:02;6.68;92.15
68189;DHT22;66299;47.514;19.218;2023-02-25T01:00:38;6.66;92.33
68189;DHT22;66299;47.514;19.218;2023-02-25T01:03:18;6.62;92.28
68189;DHT22;66299;47.514;19.218;2023-02-25T01:05:49;6.62;92.31
68189;DHT22;66299;47.514;19.218;2023-02-25T01:08:21;6.59;92.26
68189;DHT22;66299;47.514;19.218;2023-02-25T01:10:51;6.61;92.34
68189;DHT22;66299;47.514;19.218;2023-02-25T01:13:22;6.57;92.41
68189;DHT22;66299;47.514;19.218;2023-02-25T01:15:55;6.49;92.63
68189;DHT22;66299;47.514;19.218;2023-02-25T01:18:24;6.45;92.80
68189;DHT22;66299;47.514;19.218;2023-02-25T01:20:54;6.31;93.01
68189;DHT22;66299;47.514;19.218;2023-02-25T01:23:24;6.28;93.26
68189;DHT22;66299;47.514;19.218;2023-02-25T01:25:55;6.36;92.86
68189;DHT22;66299;47.514;19.218;2023-02-25T01:28:26;6.20;92.98
68189;DHT22;66299;47.514;19.218;2023-02-25T01:30:58;6.14;93.41
68189;DHT22;66299;47.514;19.218;2023-02-25T01:33:28;6.06;93.45
68189;DHT22;66299;47.514;19.218;2023-02-25T01:36:02;5.89;93.65
68189;DHT22;66299;47.514;19.218;2023-02-25T01:38:31;5.85;93.59
68189;DHT22;66299;47.514;19.218;2023-02-25T01:41:00;5.81;93.93
68189;DHT22;66299;47.514;19.218;2023-02-25T01:43:30;5.91;93.83
68189;DHT22;66299;47.514;19.218;2023-02-25T01:46:00;5.79;93.56
68189;DHT22;66299;47.514;19.218;2023-02-25T01:48:31;5.74;94.13
68189;DHT22;66299;47.514;19.218;2023-02-25T01:51:04;5.63;94.02
68189;DHT22;66299;47.514;19.218;2023-02-25T01:53:37;5.60;94.48
68189;DHT22;66299;47.514;19.218;2023-02-25T01:56:10;5.66;94.14
68189;DHT22;66299;47.514;19.218;2023-02-25T01:58:42;5.63;94.19
68189;DHT22;66299;47.514;19.218;2023-02-25T02:01:14;5.60;94.42
68189;DHT22;66299;47.514;19.218;2023-02-25T02:03:45;5.45;94.75
68189;DHT22;66299;47.514;19.218;2023-02-25T02:06:15;5.45;94.63
68189;DHT22;66299;47.514;19.218;2023-02-25T02:08:47;5.43;94.26
68189;DHT22;66299;47.514;19.218;2023-02-25T02:11:23;5.38;94.57
68189;DHT22;66299;47.514;19.218;2023-02-25T02:13:54;5.35;94.86
68189;DHT22;66299;47.514;19.218;2023-02-25T02:16:36;5.46;94.57
68189;DHT22;66299;47.514;19.218;2023-02-25T02:19:23;5.45;94.58
68189;DHT22;66299;47.514;19.218;2023-02-25T02:21:59;5.48;94.80
68189;DHT22;66299;47.514;19.218;2023-02-25T02:24:44;5.45;94.36
68189;DHT22;66299;47.514;19.218;2023-02-25T02:27:26;5.39;94.70
68189;DHT22;66299;47.514;19.218;2023-02-25T02:30:34;5.35;94.99
68189;DHT22;66299;47.514;19.218;2023-02-25T02:33:10;5.29;95.00
68189;DHT22;66299;47.514;19.218;2023-02-25T02:35:48;5.34;94.83
68189;DHT22;66299;47.514;19.218;2023-02-25T02:38:21;5.27;95.18
68189;DHT22;66299;47.514;19.218;2023-02-25T02:40:56;5.19;95.10
68189;DHT22;66299;47.514;19.218;2023-02-25T02:43:37;5.25;95.20
68189;DHT22;66299;47.514;19.218;2023-02-25T02:46:11;5.22;94.87
68189;DHT22;66299;47.514;19.218;2023-02-25T02:48:47;5.25;95.43
68189;DHT22;66299;47.514;19.218;2023-02-25T02:51:25;5.39;95.29
68189;DHT22;66299;47.514;19.218;2023-02-25T02:53:57;5.45;94.67
68189;DHT22;66299;47.514;19.218;2023-02-25T02:56:29;5.60;94.77
68189;DHT22;66299;47.514;19.218;2023-02-25T02:59:01;5.50;94.44
68189;DHT22;66299;47.514;19.218;2023-02-25T03:01:35;5.50;94.62
68189;DHT22;66299;47.514;19.218;2023-02-25T03:04:09;5.55;94.61
68189;DHT22;66299;47.514;19.218;2023-02-25T03:06:42;5.56;94.51
68189;DHT22;66299;47.514;19.218;2023-02-25T03:09:17;5.66;94.33
68189;DHT22;66299;47.514;19.218;2023-02-25T03:11:48;5.62;94.48
68189;DHT22;66299;47.514;19.218;2023-02-25T03:14:16;5.79;94.24
68189;DHT22;66299;47.514;19.218;2023-02-25T03:16:50;5.81;94.04
68189;DHT22;66299;47.514;19.218;2023-02-25T03:19:26;5.79;94.15
68189;DHT22;66299;47.514;19.218;2023-02-25T03:21:59;5.85;93.92
68189;DHT22;66299;47.514;19.218;2023-02-25T03:24:34;5.85;93.96
68189;DHT22;66299;47.514;19.218;2023-02-25T03:27:25;5.77;94.10
68189;DHT22;66299;47.514;19.218;2023-02-25T03:30:02;5.97;93.80
68189;DHT22;66299;47.514;19.218;2023-02-25T03:32:34;5.98;93.60
68189;DHT22;66299;47.514;19.218;2023-02-25T03:35:05;6.01;93.26
68189;DHT22;66299;47.514;19.218;2023-02-25T03:37:37;6.13;92.99
68189;DHT22;66299;47.514;19.218;2023-02-25T03:40:12;6.11;93.07
68189;DHT22;66299;47.514;19.218;2023-02-25T03:42:48;6.14;92.93
68189;DHT22;66299;47.514;19.218;2023-02-25T03:45:17;6.17;92.79
68189;DHT22;66299;47.514;19.218;2023-02-25T03:47:47;6.22;92.53
68189;DHT22;66299;47.514;19.218;2023-02-25T03:50:26;6.22;92.43
68189;DHT22;66299;47.514;19.218;2023-02-25T03:52:56;6.29;92.33
68189;DHT22;66299;47.514;19.218;2023-02-25T03:55:25;6.28;92.22
68189;DHT22;66299;47.514;19.218;2023-02-25T03:57:55;6.36;91.79
68189;DHT22;66299;47.514;19.218;2023-02-25T04:00:27;6.36;91.94
68189;DHT22;66299;47.514;19.218;2023-02-25T04:02:58;6.50;91.57
68189;DHT22;66299;47.514;19.218;2023-02-25T04:05:31;6.52;91.76
68189;DHT22;66299;47.514;19.218;2023-02-25T04:08:00;6.59;91.42
68189;DHT22;66299;47.514;19.218;2023-02-25T04:10:29;6.59;91.45
68189;DHT22;66299;47.514;19.218;2023-02-25T04:13:05;6.62;91.33
68189;DHT22;66299;47.514;19.218;2023-02-25T04:15:34;6.79;91.00
68189;DHT22;66299;47.514;19.218;2023-02-25T04:18:07;6.87;90.53
68189;DHT22;66299;47.514;19.218;2023-02-25T04:20:38;6.80;90.48
68189;DHT22;66299;47.514;19.218;2023-02-25T04:23:13;6.92;90.17
68189;DHT22;66299;47.514;19.218;2023-02-25T04:25:43;6.86;90.63
68189;DHT22;66299;47.514;19.218;2023-02-25T04:28:11;6.82;90.81
68189;DHT22;66299;47.514;19.218;2023-02-25T04:30:41;6.77;91.25
68189;DHT22;66299;47.514;19.218;2023-02-25T04:33:11;6.73;91.32
68189;DHT22;66299;47.514;19.218;2023-02-25T04:35:44;6.66;91.49
68189;DHT22;66299;47.514;19.218;2023-02-25T04:38:13;6.69;91.60
68189;DHT22;66299;47.514;19.218;2023-02-25T04:40:45;6.73;91.11
68189;DHT22;66299;47.514;19.218;2023-02-25T04:43:17;6.71;91.33
68189;DHT22;66299;47.514;19.218;2023-02-25T04:45:47;6.82;90.82
68189;DHT22;66299;47.514;19.218;2023-02-25T04:48:18;6.83;90.83
68189;DHT22;66299;47.514;19.218;2023-02-25T04:50:59;6.94;90.32
68189;DHT22;66299;47.514;19.218;2023-02-25T04:53:28;7.11;89.58
68189;DHT22;66299;47.514;19.218;2023-02-25T04:56:01;7.11;89.77
68189;DHT22;66299;47.514;19.218;2023-02-25T04:58:30;7.13;89.89
68189;DHT22;66299;47.514;19.218;2023-02-25T05:00:59;7.65;87.51
68189;DHT22;66299;47.514;19.218;2023-02-25T05:03:28;7.78;87.68
68189;DHT22;66299;47.514;19.218;2023-02-25T05:05:59;7.89;86.74
68189;DHT22;66299;47.514;19.218;2023-02-25T05:08:30;7.96;86.46
68189;DHT22;66299;47.514;19.218;2023-02-25T05:11:01;7.99;86.33
68189;DHT22;66299;47.514;19.218;2023-02-25T05:13:31;8.03;86.43
68189;DHT22;66299;47.514;19.218;2023-02-25T05:16:06;8.13;86.42
68189;DHT22;66299;47.514;19.218;2023-02-25T05:18:36;8.14;86.39
68189;DHT22;66299;47.514;19.218;2023-02-25T05:21:09;8.06;86.86
68189;DHT22;66299;47.514;19.218;2023-02-25T05:23:39;8.03;87.56
68189;DHT22;66299;47.514;19.218;2023-02-25T05:26:11;7.97;88.08
68189;DHT22;66299;47.514;19.218;2023-02-25T05:28:40;7.93;88.15
68189;DHT22;66299;47.514;19.218;2023-02-25T05:31:11;7.86;88.27
68189;DHT22;66299;47.514;19.218;2023-02-25T05:33:42;7.78;88.23
68189;DHT22;66299;47.514;19.218;2023-02-25T05:36:13;7.71;88.25
68189;DHT22;66299;47.514;19.218;2023-02-25T05:38:46;7.65;88.74
68189;DHT22;66299;47.514;19.218;2023-02-25T05:41:16;7.55;89.36
68189;DHT22;66299;47.514;19.218;2023-02-25T05:43:46;7.44;88.36
68189;DHT22;66299;47.514;19.218;2023-02-25T05:46:17;7.24;88.63
68189;DHT22;66299;47.514;19.218;2023-02-25T05:48:45;7.11;89.08
68189;DHT22;66299;47.514;19.218;2023-02-25T05:51:22;7.07;88.23
68189;DHT22;66299;47.514;19.218;2023-02-25T05:53:54;7.03;88.70
68189;DHT22;66299;47.514;19.218;2023-02-25T05:56:24;6.94;89.10
68189;DHT22;66299;47.514;19.218;2023-02-25T05:58:58;6.90;88.35
68189;DHT22;66299;47.514;19.218;2023-02-25T06:01:26;6.86;88.27
68189;DHT22;66299;47.514;19.218;2023-02-25T06:03:55;6.85;87.81
68189;DHT22;66299;47.514;19.218;2023-02-25T06:06:30;6.76;88.24
68189;DHT22;66299;47.514;19.218;2023-02-25T06:09:00;6.75;88.22
68189;DHT22;66299;47.514;19.218;2023-02-25T06:11:32;6.71;88.37
68189;DHT22;66299;47.514;19.218;2023-02-25T06:14:02;6.66;88.76
68189;DHT22;66299;47.514;19.218;2023-02-25T06:16:32;6.56;89.89
68189;DHT22;66299;47.514;19.218;2023-02-25T06:19:01;6.50;90.53
68189;DHT22;66299;47.514;19.218;2023-02-25T06:21:33;6.44;90.96
68189;DHT22;66299;47.514;19.218;2023-02-25T06:24:02;6.46;91.01
68189;DHT22;66299;47.514;19.218;2023-02-25T06:26:33;6.42;91.20
68189;DHT22;66299;47.514;19.218;2023-02-25T06:29:07;6.32;92.51
68189;DHT22;66299;47.514;19.218;2023-02-25T06:31:37;6.28;91.81
68189;DHT22;66299;47.514;19.218;2023-02-25T06:34:05;6.13;94.65
68189;DHT22;66299;47.514;19.218;2023-02-25T06:36:35;6.04;94.85
68189;DHT22;66299;47.514;19.218;2023-02-25T06:39:05;6.06;93.53
68189;DHT22;66299;47.514;19.218;2023-02-25T06:41:33;6.08;92.17
68189;DHT22;66299;47.514;19.218;2023-02-25T06:44:02;5.96;93.48
68189;DHT22;66299;47.514;19.218;2023-02-25T06:46:32;5.93;94.00
68189;DHT22;66299;47.514;19.218;2023-02-25T06:49:01;5.97;93.26
68189;DHT22;66299;47.514;19.218;2023-02-25T06:51:31;5.93;93.80
68189;DHT22;66299;47.514;19.218;2023-02-25T06:54:01;6.13;91.37
68189;DHT22;66299;47.514;19.218;2023-02-25T06:56:30;6.10;91.56
68189;DHT22;66299;47.514;19.218;2023-02-25T06:59:00;6.13;91.30
68189;DHT22;66299;47.514;19.218;2023-02-25T07:01:31;6.11;90.71
68189;DHT22;66299;47.514;19.218;2023-02-25T07:04:00;6.16;90.00
68189;DHT22;66299;47.514;19.218;2023-02-25T07:06:28;6.25;89.71
68189;DHT22;66299;47.514;19.218;2023-02-25T07:09:01;6.21;88.74
68189;DHT22;66299;47.514;19.218;2023-02-25T07:11:31;6.24;88.40
68189;DHT22;66299;47.514;19.218;2023-02-25T07:14:02;6.18;89.57
68189;DHT22;66299;47.514;19.218;2023-02-25T07:16:31;6.21;88.72
68189;DHT22;66299;47.514;19.218;2023-02-25T07:19:01;6.24;87.91
68189;DHT22;66299;47.514;19.218;2023-02-25T07:21:30;6.22;87.23
68189;DHT22;66299;47.514;19.218;2023-02-25T07:24:01;6.24;87.48
68189;DHT22;66299;47.514;19.218;2023-02-25T07:26:29;6.27;86.38
68189;DHT22;66299;47.514;19.218;2023-02-25T07:28:58;6.21;86.84
68189;DHT22;66299;47.514;19.218;2023-02-25T07:31:27;6.27;87.13
68189;DHT22;66299;47.514;19.218;2023-02-25T07:33:57;6.34;86.40
68189;DHT22;66299;47.514;19.218;2023-02-25T07:36:30;6.35;85.41
68189;DHT22;66299;47.514;19.218;2023-02-25T07:39:02;6.39;86.25
68189;DHT22;66299;47.514;19.218;2023-02-25T07:41:32;6.44;84.71
68189;DHT22;66299;47.514;19.218;2023-02-25T07:44:00;6.44;83.91
68189;DHT22;66299;47.514;19.218;2023-02-25T07:46:29;6.42;84.04
68189;DHT22;66299;47.514;19.218;2023-02-25T07:48:58;6.44;84.05
68189;DHT22;66299;47.514;19.218;2023-02-25T07:51:27;6.25;83.68
68189;DHT22;66299;47.514;19.218;2023-02-25T07:53:58;6.17;84.24
68189;DHT22;66299;47.514;19.218;2023-02-25T07:56:30;6.10;83.58
68189;DHT22;66299;47.514;19.218;2023-02-25T07:58:59;6.07;83.63
68189;DHT22;66299;47.514;19.218;2023-02-25T08:01:29;6.07;82.42
68189;DHT22;66299;47.514;19.218;2023-02-25T08:04:00;6.11;83.40
68189;DHT22;66299;47.514;19.218;2023-02-25T08:06:30;6.10;81.78
68189;DHT22;66299;47.514;19.218;2023-02-25T08:09:02;6.07;81.82
68189;DHT22;66299;47.514;19.218;2023-02-25T08:11:38;6.07;82.32
68189;DHT22;66299;47.514;19.218;2023-02-25T08:14:11;6.07;81.99
68189;DHT22;66299;47.514;19.218;2023-02-25T08:16:43;6.11;82.14
68189;DHT22;66299;47.514;19.218;2023-02-25T08:19:11;6.06;82.57
68189;DHT22;66299;47.514;19.218;2023-02-25T08:21:40;6.06;82.83
68189;DHT22;66299;47.514;19.218;2023-02-25T08:24:09;6.03;82.09
68189;DHT22;66299;47.514;19.218;2023-02-25T08:26:39;6.13;81.61
68189;DHT22;66299;47.514;19.218;2023-02-25T08:29:10;6.07;82.20
68189;DHT22;66299;47.514;19.218;2023-02-25T08:31:39;6.03;82.60
68189;DHT22;66299;47.514;19.218;2023-02-25T08:34:11;6.03;82.19
68189;DHT22;66299;47.514;19.218;2023-02-25T08:36:40;6.07;82.34
68189;DHT22;66299;47.514;19.218;2023-02-25T08:39:10;6.03;82.42
68189;DHT22;66299;47.514;19.218;2023-02-25T08:41:41;6.04;83.03
68189;DHT22;66299;47.514;19.218;2023-02-25T08:44:10;5.97;83.32
68189;DHT22;66299;47.514;19.218;2023-02-25T08:46:43;5.94;83.61
68189;DHT22;66299;47.514;19.218;2023-02-25T08:49:15;5.97;83.54
68189;DHT22;66299;47.514;19.218;2023-02-25T08:51:46;5.93;83.53
68189;DHT22;66299;47.514;19.218;2023-02-25T08:54:20;6.01;82.91
68189;DHT22;66299;47.514;19.218;2023-02-25T08:56:54;6.04;83.19
68189;DHT22;66299;47.514;19.218;2023-02-25T08:59:23;6.10;83.53
68189;DHT22;66299;47.514;19.218;2023-02-25T09:01:56;6.06;83.12
68189;DHT22;66299;47.514;19.218;2023-02-25T09:04:27;6.01;83.59
68189;DHT22;66299;47.514;19.218;2023-02-25T09:06:58;6.08;82.94
68189;DHT22;66299;47.514;19.218;2023-02-25T09:09:31;6.04;83.02
68189;DHT22;66299;47.514;19.218;2023-02-25T09:12:04;6.08;83.18
68189;DHT22;66299;47.514;19.218;2023-02-25T09:14:32;6.16;83.47
68189;DHT22;66299;47.514;19.218;2023-02-25T09:17:05;6.07;82.10
68189;DHT22;66299;47.514;19.218;2023-02-25T09:19:36;6.16;82.23
68189;DHT22;66299;47.514;19.218;2023-02-25T09:22:07;6.14;81.28
68189;DHT22;66299;47.514;19.218;2023-02-25T09:24:38;6.31;81.25
68189;DHT22;66299;47.514;19.218;2023-02-25T09:27:11;6.25;82.18
68189;DHT22;66299;47.514;19.218;2023-02-25T09:29:41;6.31;81.87
68189;DHT22;66299;47.514;19.218;2023-02-25T09:32:18;6.36;82.55
68189;DHT22;66299;47.514;19.218;2023-02-25T09:34:47;6.31;81.70
68189;DHT22;66299;47.514;19.218;2023-02-25T09:37:16;6.16;81.44
68189;DHT22;66299;47.514;19.218;2023-02-25T09:39:45;6.16;81.97
68189;DHT22;66299;47.514;19.218;2023-02-25T09:42:18;6.21;82.49
68189;DHT22;66299;47.514;19.218;2023-02-25T09:44:50;6.18;82.20
68189;DHT22;66299;47.514;19.218;2023-02-25T09:47:24;6.13;82.19
68189;DHT22;66299;47.514;19.218;2023-02-25T09:49:57;6.07;81.58
68189;DHT22;66299;47.514;19.218;2023-02-25T09:52:30;6.07;80.63
68189;DHT22;66299;47.514;19.218;2023-02-25T09:55:07;6.14;80.94
68189;DHT22;66299;47.514;19.218;2023-02-25T09:57:54;6.17;79.06
68189;DHT22;66299;47.514;19.218;2023-02-25T10:00:24;6.27;79.68
68189;DHT22;66299;47.514;19.218;2023-02-25T10:02:57;6.56;79.42
68189;DHT22;66299;47.514;19.218;2023-02-25T10:05:36;6.45;78.11
68189;DHT22;66299;47.514;19.218;2023-02-25T10:08:14;6.52;77.93
68189;DHT22;66299;47.514;19.218;2023-02-25T10:10:56;6.73;77.76
68189;DHT22;66299;47.514;19.218;2023-02-25T10:13:39;6.65;77.75
68189;DHT22;66299;47.514;19.218;2023-02-25T10:16:22;6.75;75.78
68189;DHT22;66299;47.514;19.218;2023-02-25T10:19:04;6.83;74.94
68189;DHT22;66299;47.514;19.218;2023-02-25T10:21:58;7.10;75.33
68189;DHT22;66299;47.514;19.218;2023-02-25T10:24:38;6.96;74.04
68189;DHT22;66299;47.514;19.218;2023-02-25T10:27:17;7.04;75.28
68189;DHT22;66299;47.514;19.218;2023-02-25T10:29:51;7.20;73.19
68189;DHT22;66299;47.514;19.218;2023-02-25T10:32:24;7.00;71.03
68189;DHT22;66299;47.514;19.218;2023-02-25T10:34:57;7.11;70.90
68189;DHT22;66299;47.514;19.218;2023-02-25T10:37:31;7.17;71.68
68189;DHT22;66299;47.514;19.218;2023-02-25T10:40:03;7.18;70.61
68189;DHT22;66299;47.514;19.218;2023-02-25T10:42:36;7.13;70.90
68189;DHT22;66299;47.514;19.218;2023-02-25T10:45:10;7.04;70.32
68189;DHT22;66299;47.514;19.218;2023-02-25T10:47:44;7.11;69.32
68189;DHT22;66299;47.514;19.218;2023-02-25T10:50:18;7.35;68.64
68189;DHT22;66299;47.514;19.218;2023-02-25T10:52:59;7.56;69.30
68189;DHT22;66299;47.514;19.218;2023-02-25T10:55:39;7.76;68.78
68189;DHT22;66299;47.514;19.218;2023-02-25T10:58:25;7.89;68.67
68189;DHT22;66299;47.514;19.218;2023-02-25T11:01:03;8.04;68.41
68189;DHT22;66299;47.514;19.218;2023-02-25T11:03:43;8.47;68.33
68189;DHT22;66299;47.514;19.218;2023-02-25T11:06:19;8.55;67.75
68189;DHT22;66299;47.514;19.218;2023-02-25T11:08:53;8.37;67.19
68189;DHT22;66299;47.514;19.218;2023-02-25T11:11:26;8.31;64.25
68189;DHT22;66299;47.514;19.218;2023-02-25T11:14:01;8.34;62.84
68189;DHT22;66299;47.514;19.218;2023-02-25T11:16:35;8.17;60.27
68189;DHT22;66299;47.514;19.218;2023-02-25T11:19:15;8.54;59.57
68189;DHT22;66299;47.514;19.218;2023-02-25T11:21:48;8.19;59.08
68189;DHT22;66299;47.514;19.218;2023-02-25T11:24:27;8.31;58.58
68189;DHT22;66299;47.514;19.218;2023-02-25T11:27:00;8.47;58.43
68189;DHT22;66299;47.514;19.218;2023-02-25T11:29:33;8.44;57.56
68189;DHT22;66299;47.514;19.218;2023-02-25T11:32:11;8.68;58.04
68189;DHT22;66299;47.514;19.218;2023-02-25T11:34:47;8.55;56.99
68189;DHT22;66299;47.514;19.218;2023-02-25T11:37:23;8.82;56.82
68189;DHT22;66299;47.514;19.218;2023-02-25T11:39:55;9.03;56.90
68189;DHT22;66299;47.514;19.218;2023-02-25T11:42:34;8.96;57.02
68189;DHT22;66299;47.514;19.218;2023-02-25T11:45:03;9.00;57.04
68189;DHT22;66299;47.514;19.218;2023-02-25T11:47:39;8.88;57.13
68189;DHT22;66299;47.514;19.218;2023-02-25T11:50:18;8.96;56.86
68189;DHT22;66299;47.514;19.218;2023-02-25T11:52:58;9.23;56.85
68189;DHT22;66299;47.514;19.218;2023-02-25T11:55:48;8.47;56.01
68189;DHT22;66299;47.514;19.218;2023-02-25T11:58:28;8.42;57.27
68189;DHT22;66299;47.514;19.218;2023-02-25T12:01:03;8.78;57.11
68189;DHT22;66299;47.514;19.218;2023-02-25T12:03:55;8.33;56.65
68189;DHT22;66299;47.514;19.218;2023-02-25T12:06:39;8.33;57.13
68189;DHT22;66299;47.514;19.218;2023-02-25T12:09:37;8.47;56.55
68189;DHT22;66299;47.514;19.218;2023-02-25T12:15:55;8.26;55.83
68189;DHT22;66299;47.514;19.218;2023-02-25T12:22:02;8.30;56.27
68189;DHT22;66299;47.514;19.218;2023-02-25T12:25:06;8.54;55.78
68189;DHT22;66299;47.514;19.218;2023-02-25T12:27:57;8.68;55.89
68189;DHT22;66299;47.514;19.218;2023-02-25T12:30:51;8.72;55.02
68189;DHT22;66299;47.514;19.218;2023-02-25T12:36:50;9.27;53.84
68189;DHT22;66299;47.514;19.218;2023-02-25T12:39:39;9.15;54.46
68189;DHT22;66299;47.514;19.218;2023-02-25T12:42:21;9.23;54.32
68189;DHT22;66299;47.514;19.218;2023-02-25T12:48:34;9.09;55.02
68189;DHT22;66299;47.514;19.218;2023-02-25T12:51:39;9.30;55.30
68189;DHT22;66299;47.514;19.218;2023-02-25T12:54:27;8.82;56.15
68189;DHT22;66299;47.514;19.218;2023-02-25T12:57:18;8.55;55.31
68189;DHT22;66299;47.514;19.218;2023-02-25T13:03:09;8.59;54.53
68189;DHT22;66299;47.514;19.218;2023-02-25T13:06:06;9.38;53.46
68189;DHT22;66299;47.514;19.218;2023-02-25T13:11:43;9.33;52.04
68189;DHT22;66299;47.514;19.218;2023-02-25T13:14:42;9.46;51.63
68189;DHT22;66299;47.514;19.218;2023-02-25T13:17:26;9.89;51.25
68189;DHT22;66299;47.514;19.218;2023-02-25T13:20:38;9.74;50.89
68189;DHT22;66299;47.514;19.218;2023-02-25T13:23:34;9.20;52.12
68189;DHT22;66299;47.514;19.218;2023-02-25T13:26:16;9.59;51.72
68189;DHT22;66299;47.514;19.218;2023-02-25T13:29:11;9.17;52.04
68189;DHT22;66299;47.514;19.218;2023-02-25T13:31:48;8.86;51.98
68189;DHT22;66299;47.514;19.218;2023-02-25T13:34:27;9.22;52.16
68189;DHT22;66299;47.514;19.218;2023-02-25T13:37:15;8.93;51.60
68189;DHT22;66299;47.514;19.218;2023-02-25T13:39:56;8.93;52.24
68189;DHT22;66299;47.514;19.218;2023-02-25T13:42:48;9.23;52.21
68189;DHT22;66299;47.514;19.218;2023-02-25T13:45:49;8.95;52.83
68189;DHT22;66299;47.514;19.218;2023-02-25T13:48:41;9.05;53.17
68189;DHT22;66299;47.514;19.218;2023-02-25T13:51:40;9.26;53.06
68189;DHT22;66299;47.514;19.218;2023-02-25T13:54:27;8.96;52.79
68189;DHT22;66299;47.514;19.218;2023-02-25T13:57:06;8.80;52.77
68189;DHT22;66299;47.514;19.218;2023-02-25T14:00:24;8.83;52.80
68189;DHT22;66299;47.514;19.218;2023-02-25T14:03:36;8.51;52.94
68189;DHT22;66299;47.514;19.218;2023-02-25T14:06:15;8.67;53.50
68189;DHT22;66299;47.514;19.218;2023-02-25T14:09:15;8.95;53.02
68189;DHT22;66299;47.514;19.218;2023-02-25T14:11:53;8.58;51.84
68189;DHT22;66299;47.514;19.218;2023-02-25T14:14:46;8.40;51.61
68189;DHT22;66299;47.514;19.218;2023-02-25T14:17:28;8.64;51.53
68189;DHT22;66299;47.514;19.218;2023-02-25T14:20:16;8.59;51.52
68189;DHT22;66299;47.514;19.218;2023-02-25T14:22:50;8.65;51.40
68189;DHT22;66299;47.514;19.218;2023-02-25T14:25:40;8.61;52.02
68189;DHT22;66299;47.514;19.218;2023-02-25T14:28:19;8.40;51.69
68189;DHT22;66299;47.514;19.218;2023-02-25T14:31:00;8.55;51.88
68189;DHT22;66299;47.514;19.218;2023-02-25T14:33:41;8.30;52.05
68189;DHT22;66299;47.514;19.218;2023-02-25T14:39:21;8.14;52.04
68189;DHT22;66299;47.514;19.218;2023-02-25T14:42:14;8.23;52.02
68189;DHT22;66299;47.514;19.218;2023-02-25T14:44:52;8.11;51.92
68189;DHT22;66299;47.514;19.218;2023-02-25T14:47:27;8.09;51.94
68189;DHT22;66299;47.514;19.218;2023-02-25T14:50:04;8.06;52.21
68189;DHT22;66299;47.514;19.218;2023-02-25T14:52:57;8.06;52.26
68189;DHT22;66299;47.514;19.218;2023-02-25T15:02:16;8.00;52.59
68189;DHT22;66299;47.514;19.218;2023-02-25T15:05:09;8.04;53.08
68189;DHT22;66299;47.514;19.218;2023-02-25T15:08:00;8.02;53.29
68189;DHT22;66299;47.514;19.218;2023-02-25T15:10:42;7.93;53.65
68189;DHT22;66299;47.514;19.218;2023-02-25T15:13:25;7.83;54.17
68189;DHT22;66299;47.514;19.218;2023-02-25T15:16:27;7.79;54.33
68189;DHT22;66299;47.514;19.218;2023-02-25T15:22:20;7.68;54.90
68189;DHT22;66299;47.514;19.218;2023-02-25T15:24:52;7.63;55.45
68189;DHT22;66299;47.514;19.218;2023-02-25T15:27:46;7.62;55.78
68189;DHT22;66299;47.514;19.218;2023-02-25T15:30:20;7.63;54.24
68189;DHT22;66299;47.514;19.218;2023-02-25T15:33:20;7.63;54.31
68189;DHT22;66299;47.514;19.218;2023-02-25T15:35:56;7.52;55.03
68189;DHT22;66299;47.514;19.218;2023-02-25T15:38:44;7.51;54.70
68189;DHT22;66299;47.514;19.218;2023-02-25T15:41:44;7.44;55.62
68189;DHT22;66299;47.514;19.218;2023-02-25T15:44:32;7.45;55.07
68189;DHT22;66299;47.514;19.218;2023-02-25T15:47:25;7.35;55.33
68189;DHT22;66299;47.514;19.218;2023-02-25T15:49:57;7.44;54.93
68189;DHT22;66299;47.514;19.218;2023-02-25T15:52:48;7.30;55.38
68189;DHT22;66299;47.514;19.218;2023-02-25T15:55:31;7.35;54.64
68189;DHT22;66299;47.514;19.218;2023-02-25T15:58:37;7.25;55.04
68189;DHT22;66299;47.514;19.218;2023-02-25T16:07:17;6.94;57.15
68189;DHT22;66299;47.514;19.218;2023-02-25T16:09:51;7.08;56.37
68189;DHT22;66299;47.514;19.218;2023-02-25T16:12:23;7.15;55.67
68189;DHT22;66299;47.514;19.218;2023-02-25T16:14:54;7.17;55.88
68189;DHT22;66299;47.514;19.218;2023-02-25T16:17:27;7.00;56.93
68189;DHT22;66299;47.514;19.218;2023-02-25T16:20:07;6.85;57.78
68189;DHT22;66299;47.514;19.218;2023-02-25T16:22:43;6.89;58.28
68189;DHT22;66299;47.514;19.218;2023-02-25T16:25:15;6.85;58.88
68189;DHT22;66299;47.514;19.218;2023-02-25T16:27:53;6.82;59.37
68189;DHT22;66299;47.514;19.218;2023-02-25T16:30:32;6.65;60.01
68189;DHT22;66299;47.514;19.218;2023-02-25T16:33:11;6.69;60.26
68189;DHT22;66299;47.514;19.218;2023-02-25T16:35:48;6.69;60.66
68189;DHT22;66299;47.514;19.218;2023-02-25T16:38:35;6.55;61.09
68189;DHT22;66299;47.514;19.218;2023-02-25T16:41:08;6.52;61.15
68189;DHT22;66299;47.514;19.218;2023-02-25T16:43:41;6.52;61.39
68189;DHT22;66299;47.514;19.218;2023-02-25T16:46:15;6.41;62.04
68189;DHT22;66299;47.514;19.218;2023-02-25T16:48:47;6.45;62.03
68189;DHT22;66299;47.514;19.218;2023-02-25T16:51:23;6.46;62.22
68189;DHT22;66299;47.514;19.218;2023-02-25T16:53:54;6.32;62.63
68189;DHT22;66299;47.514;19.218;2023-02-25T16:56:26;6.35;62.59
68189;DHT22;66299;47.514;19.218;2023-02-25T16:59:03;6.34;62.63
68189;DHT22;66299;47.514;19.218;2023-02-25T17:01:36;6.28;63.00
68189;DHT22;66299;47.514;19.218;2023-02-25T17:04:14;6.20;63.59